createdAt,value
2017-10-21T00:04:07.132Z,79.30
2017-10-21T00:09:11.017Z,79.10
2017-10-21T00:14:14.611Z,79.70
2017-10-21T00:24:26.155Z,79.70
2017-10-21T00:29:29.786Z,79.90
2017-10-21T00:34:35.190Z,79.50
2017-10-21T00:39:38.312Z,79.90
2017-10-21T00:44:42.066Z,79.80
2017-10-21T00:54:53.328Z,80.10
2017-10-21T00:59:56.290Z,79.80
2017-10-21T01:05:02.825Z,79.90
2017-10-21T01:10:06.301Z,79.10
2017-10-21T01:15:09.157Z,79.30
2017-10-21T01:20:13.521Z,79.50
2017-10-21T01:25:19.961Z,80.00
2017-10-21T01:30:23.079Z,79.70
2017-10-21T01:35:27.682Z,80.10
2017-10-21T01:45:38.556Z,80.40
2017-10-21T01:50:43.011Z,80.50
2017-10-21T02:05:59.926Z,80.40
2017-10-21T02:11:04.360Z,81.00
2017-10-21T02:16:10.916Z,81.30
2017-10-21T02:21:14.474Z,81.50
2017-10-21T02:26:17.948Z,81.00
2017-10-21T02:31:21.543Z,81.10
2017-10-21T02:36:24.914Z,80.90
2017-10-21T02:41:29.508Z,80.60
2017-10-21T02:46:34.549Z,81.00
2017-10-21T02:51:38.856Z,80.90
2017-10-21T02:56:42.572Z,80.60
2017-10-21T03:01:47.326Z,81.20
2017-10-21T03:06:50.244Z,81.00
2017-10-21T03:11:54.036Z,81.10
2017-10-21T03:22:05.458Z,81.10
2017-10-21T03:27:09.903Z,81.50
2017-10-21T03:37:23.047Z,81.40
2017-10-21T03:42:27.559Z,81.40
2017-10-21T03:47:31.213Z,81.30
2017-10-21T03:52:34.291Z,81.40
2017-10-21T03:57:37.330Z,81.40
2017-10-21T04:07:49.919Z,81.60
2017-10-21T04:12:54.476Z,81.50
2017-10-21T04:17:58.208Z,81.40
2017-10-21T04:23:01.120Z,81.40
2017-10-21T04:28:05.670Z,81.40
2017-10-21T04:33:09.274Z,81.50
2017-10-21T04:43:22.819Z,81.40
2017-10-21T04:48:26.136Z,81.40
2017-10-21T04:53:29.179Z,81.30
2017-10-21T04:58:32.532Z,81.50
2017-10-21T05:03:37.192Z,81.40
2017-10-21T05:13:48.711Z,81.50
2017-10-21T05:24:02.983Z,82.30
2017-10-21T05:29:06.407Z,81.70
2017-10-21T05:34:09.553Z,81.80
2017-10-21T05:39:12.518Z,81.80
2017-10-21T05:44:15.368Z,81.60
2017-10-21T05:49:21.066Z,81.70
2017-10-21T05:54:24.669Z,81.50
2017-10-21T05:59:27.715Z,81.50
2017-10-21T06:04:30.748Z,81.80
2017-10-21T06:09:35.188Z,81.70
2017-10-21T06:14:39.249Z,82.00
2017-10-21T06:19:42.382Z,81.80
2017-10-21T06:24:45.604Z,81.90
2017-10-21T06:34:57.379Z,81.90
2017-10-21T06:40:03.882Z,81.70
2017-10-21T06:50:18.116Z,81.80
2017-10-21T06:55:21.761Z,81.90
2017-10-21T07:00:25.692Z,82.00
2017-10-21T07:10:35.564Z,82.20
2017-10-21T07:15:41.773Z,82.10
2017-10-21T07:20:45.381Z,82.60
2017-10-21T07:25:49.933Z,81.90
2017-10-21T07:30:53.450Z,83.40
2017-10-21T07:36:00.966Z,82.20
2017-10-21T07:41:03.864Z,82.10
2017-10-21T07:46:08.266Z,81.90
2017-10-21T07:51:12.715Z,82.00
2017-10-21T07:56:17.791Z,82.10
2017-10-21T08:01:24.354Z,82.10
2017-10-21T08:06:30.528Z,82.10
2017-10-21T08:16:40.933Z,81.90
2017-10-21T08:21:45.357Z,81.80
2017-10-21T08:26:51.970Z,82.50
2017-10-21T08:31:56.367Z,82.40
2017-10-21T08:37:00.971Z,82.00
2017-10-21T08:42:05.276Z,81.90
2017-10-21T08:47:08.446Z,81.80
2017-10-21T08:52:11.476Z,82.00
2017-10-21T08:57:14.423Z,81.90
2017-10-21T09:02:18.657Z,81.90
2017-10-21T09:07:22.045Z,81.90
2017-10-21T09:12:25.827Z,82.70
2017-10-21T09:17:29.369Z,82.70
2017-10-21T09:22:32.558Z,83.10
2017-10-21T09:27:35.541Z,82.80
2017-10-21T09:32:38.285Z,83.90
2017-10-21T09:37:44.844Z,83.30
2017-10-21T09:42:49.713Z,83.00
2017-10-21T09:47:52.683Z,83.10
2017-10-21T09:52:55.860Z,83.00
2017-10-21T09:57:59.532Z,83.20
2017-10-21T10:03:02.857Z,82.60
2017-10-21T10:08:06.019Z,82.10
2017-10-21T10:13:09.060Z,82.20
2017-10-21T10:18:15.952Z,81.40
2017-10-21T10:23:20.246Z,80.70
2017-10-21T10:28:24.867Z,81.30
2017-10-21T10:33:27.956Z,81.10
2017-10-21T10:38:34.222Z,80.00
2017-10-21T10:43:38.611Z,79.90
2017-10-21T10:48:41.589Z,79.80
2017-10-21T10:53:44.427Z,78.50
2017-10-21T10:58:48.789Z,78.00
2017-10-21T11:03:51.791Z,78.40
2017-10-21T11:08:55.666Z,77.40
2017-10-21T11:13:58.966Z,77.00
2017-10-21T11:19:02.516Z,77.10
2017-10-21T11:24:05.462Z,78.10
2017-10-21T11:29:10.626Z,79.00
2017-10-21T11:34:14.880Z,79.40
2017-10-21T11:39:18.669Z,77.00
2017-10-21T11:44:27.012Z,76.00
2017-10-21T11:49:33.486Z,73.80
2017-10-21T11:54:40.007Z,72.60
2017-10-21T11:59:46.178Z,71.60
2017-10-21T12:04:49.107Z,71.80
2017-10-21T12:09:54.322Z,71.60
2017-10-21T12:14:57.733Z,71.10
2017-10-21T12:20:04.005Z,71.50
2017-10-21T12:25:08.676Z,71.30
2017-10-21T12:30:11.966Z,71.30
2017-10-21T12:35:15.511Z,71.40
2017-10-21T12:40:19.296Z,71.60
2017-10-21T12:45:24.007Z,71.40
2017-10-21T12:50:26.978Z,71.40
2017-10-21T13:16:09.562Z,73.30
2017-10-21T13:21:14.850Z,73.10
2017-10-21T13:26:17.443Z,73.10
2017-10-21T13:31:21.672Z,74.50
2017-10-21T14:03:33.644Z,75.40
2017-10-21T14:13:44.375Z,75.30
2017-10-21T14:18:48.239Z,75.30
2017-10-21T14:23:55.279Z,75.40
2017-10-21T14:34:05.725Z,76.10
2017-10-21T14:39:10.197Z,76.50
2017-10-21T14:44:13.662Z,76.70
2017-10-21T14:49:17.164Z,77.00
2017-10-21T14:54:21.340Z,77.10
2017-10-21T14:59:24.179Z,77.20
2017-10-21T15:04:28.603Z,76.90
2017-10-21T15:09:32.057Z,76.90
2017-10-21T15:14:38.437Z,77.20
2017-10-21T15:19:41.934Z,77.30
2017-10-21T15:24:44.953Z,77.50
2017-10-21T15:29:48.456Z,76.90
2017-10-21T15:34:55.445Z,77.50
2017-10-21T15:39:59.143Z,77.50
2017-10-21T15:45:03.603Z,77.30
2017-10-21T15:50:09.977Z,77.20
2017-10-21T15:55:12.946Z,77.40
2017-10-21T16:00:15.830Z,77.50
2017-10-21T16:20:53.384Z,77.90
2017-10-21T16:25:59.590Z,78.50
2017-10-21T16:31:02.168Z,78.20
2017-10-21T16:36:06.642Z,78.30
2017-10-21T16:41:12.940Z,78.40
2017-10-21T16:46:19.093Z,78.40
2017-10-21T16:51:22.888Z,78.20
2017-10-21T16:56:25.958Z,78.20
2017-10-21T17:01:29.127Z,78.10
2017-10-21T17:06:32.771Z,78.40
2017-10-21T17:11:37.800Z,78.30
2017-10-21T17:16:40.477Z,78.40
2017-10-21T17:21:43.914Z,78.40
2017-10-21T17:26:47.643Z,78.30
2017-10-21T17:31:51.880Z,78.40
2017-10-21T17:36:57.342Z,78.40
2017-10-21T17:42:04.153Z,78.50
2017-10-21T17:57:20.996Z,78.40
2017-10-21T18:07:32.093Z,78.50
2017-10-21T18:12:36.450Z,78.50
2017-10-21T18:17:40.098Z,79.20
2017-10-21T18:22:43.705Z,79.20
2017-10-21T18:27:47.752Z,79.10
2017-10-21T18:32:52.009Z,79.10
2017-10-21T18:37:56.534Z,79.50
2017-10-21T18:43:00.064Z,79.50
2017-10-21T18:48:04.496Z,79.50
2017-10-21T18:53:08.999Z,79.50
2017-10-21T18:58:15.464Z,79.60
2017-10-21T19:03:18.965Z,79.60
2017-10-21T19:08:22.490Z,79.40
2017-10-21T19:13:25.878Z,79.40
2017-10-21T19:18:29.324Z,79.50
2017-10-21T19:28:38.965Z,79.60
2017-10-21T19:38:48.984Z,80.40
2017-10-21T19:43:52.764Z,80.40
2017-10-21T19:48:57.110Z,80.20
2017-10-21T19:54:03.221Z,80.10
2017-10-21T20:09:23.121Z,80.20
2017-10-21T20:14:26.784Z,80.20
2017-10-21T20:19:31.703Z,80.10
2017-10-21T20:24:34.590Z,79.90
2017-10-21T20:29:40.963Z,80.30
2017-10-21T20:34:44.295Z,80.60
2017-10-21T20:39:51.111Z,80.90
2017-10-21T20:44:57.902Z,80.70
2017-10-21T20:50:05.708Z,80.50
2017-10-21T21:05:25.574Z,80.20
2017-10-21T21:15:39.962Z,80.50
2017-10-21T21:31:00.770Z,80.70
2017-10-21T21:36:03.965Z,80.80
2017-10-21T21:41:07.787Z,80.80
2017-10-21T21:46:14.617Z,80.50
2017-10-21T21:56:26.450Z,80.70
2017-10-21T22:01:31.590Z,80.50
2017-10-21T22:06:36.322Z,80.20
2017-10-21T22:11:39.616Z,79.60
2017-10-21T22:16:44.608Z,79.30
2017-10-21T22:21:51.958Z,79.30
2017-10-21T22:26:58.625Z,79.10
2017-10-21T22:43:23.887Z,78.60
2017-10-21T22:48:39.099Z,78.90
2017-10-21T22:59:24.610Z,78.80
2017-10-21T23:16:19.071Z,78.90
2017-10-21T23:44:29.139Z,78.10
